createdAt,value
2023-09-28T00:01:40.910Z,0.30
2023-09-28T00:04:10.433Z,0.30
2023-09-28T00:06:40.103Z,0.40
2023-09-28T00:09:11.664Z,0.30
2023-09-28T00:11:40.988Z,0.30
2023-09-28T00:14:10.170Z,0.40
2023-09-28T00:16:39.490Z,0.30
2023-09-28T00:19:09.724Z,0.35
2023-09-28T00:21:39.217Z,0.30
2023-09-28T00:24:10.859Z,0.40
2023-09-28T00:26:40.257Z,0.30
2023-09-28T00:29:09.568Z,0.30
2023-09-28T00:31:40.213Z,0.30
2023-09-28T00:34:09.794Z,0.40
2023-09-28T00:36:39.021Z,0.30
2023-09-28T00:39:09.897Z,0.35
2023-09-28T00:41:39.242Z,0.30
2023-09-28T00:44:08.473Z,0.40
2023-09-28T00:46:38.834Z,0.30
2023-09-28T00:49:08.753Z,0.40
2023-09-28T00:51:40.546Z,0.30
2023-09-28T00:54:12.705Z,0.30
2023-09-28T00:56:43.181Z,0.30
2023-09-28T00:59:12.451Z,0.40
2023-09-28T01:01:41.781Z,0.30
2023-09-28T01:04:11.364Z,0.40
2023-09-28T01:06:40.953Z,0.30
2023-09-28T01:09:11.187Z,0.40
2023-09-28T01:11:42.827Z,0.38
2023-09-28T01:14:12.118Z,0.40
2023-09-28T01:16:41.750Z,0.38
2023-09-28T01:19:10.991Z,0.40
2023-09-28T01:21:41.134Z,0.38
2023-09-28T01:24:10.626Z,0.40
2023-09-28T01:26:40.866Z,0.30
2023-09-28T01:29:11.231Z,0.40
2023-09-28T01:31:40.600Z,0.30
2023-09-28T01:34:10.426Z,0.40
2023-09-28T01:36:39.754Z,0.40
2023-09-28T01:39:08.952Z,0.30
2023-09-28T01:41:38.241Z,0.30
2023-09-28T01:44:07.456Z,0.30
2023-09-28T01:46:36.724Z,0.40
2023-09-28T01:49:06.380Z,0.40
2023-09-28T01:51:35.599Z,0.40
2023-09-28T01:54:05.065Z,0.30
2023-09-28T01:56:34.253Z,0.40
2023-09-28T01:59:03.798Z,0.40
2023-09-28T02:01:33.407Z,0.40
2023-09-28T02:04:02.637Z,0.60
2023-09-28T02:06:31.843Z,0.52
2023-09-28T02:09:01.081Z,0.40
2023-09-28T02:11:30.295Z,0.40
2023-09-28T02:14:00.739Z,0.40
2023-09-28T02:16:30.708Z,0.40
2023-09-28T02:19:00.019Z,0.40
2023-09-28T02:21:29.192Z,0.40
2023-09-28T02:24:02.332Z,0.40
2023-09-28T02:26:31.532Z,0.40
2023-09-28T02:29:01.092Z,0.30
2023-09-28T02:31:30.355Z,0.40
2023-09-28T02:34:01.397Z,0.40
2023-09-28T02:36:33.951Z,0.40
2023-09-28T02:39:08.392Z,0.30
2023-09-28T02:41:37.579Z,0.30
2023-09-28T02:44:07.179Z,0.40
2023-09-28T02:46:36.910Z,0.32
2023-09-28T02:49:08.050Z,0.40
2023-09-28T02:51:37.240Z,0.40
2023-09-28T02:54:06.539Z,0.43
2023-09-28T02:56:35.981Z,0.40
2023-09-28T02:59:05.882Z,0.40
2023-09-28T03:01:35.184Z,0.40
2023-09-28T03:04:04.718Z,0.35
2023-09-28T03:06:38.723Z,0.40
2023-09-28T03:09:10.228Z,0.40
2023-09-28T03:11:40.939Z,0.50
2023-09-28T03:14:10.549Z,0.50
2023-09-28T03:16:40.836Z,0.40
2023-09-28T03:19:11.561Z,0.40
2023-09-28T03:21:43.481Z,0.40
2023-09-28T03:24:12.806Z,0.40
2023-09-28T03:26:42.057Z,0.35
2023-09-28T03:29:11.386Z,0.30
2023-09-28T03:31:41.521Z,0.30
2023-09-28T03:34:11.425Z,0.40
2023-09-28T03:36:40.732Z,0.35
2023-09-28T03:39:11.497Z,0.38
2023-09-28T03:41:40.681Z,0.40
2023-09-28T03:44:09.982Z,0.40
2023-09-28T03:46:39.259Z,0.40
2023-09-28T03:49:08.427Z,0.40
2023-09-28T03:51:37.590Z,0.40
2023-09-28T03:54:07.022Z,0.40
2023-09-28T03:56:36.187Z,0.40
2023-09-28T03:59:05.490Z,0.40
2023-09-28T04:01:35.139Z,0.40
2023-09-28T04:04:04.668Z,0.40
2023-09-28T04:06:33.895Z,0.40
2023-09-28T04:09:03.824Z,0.40
2023-09-28T04:11:33.071Z,0.50
2023-09-28T04:14:09.032Z,0.40
2023-09-28T04:16:40.353Z,0.40
2023-09-28T04:19:09.591Z,0.40
2023-09-28T04:21:38.779Z,0.40
2023-09-28T04:24:08.180Z,0.50
2023-09-28T04:26:37.484Z,0.40
2023-09-28T04:29:06.725Z,0.40
2023-09-28T04:31:36.121Z,0.40
2023-09-28T04:34:05.375Z,0.40
2023-09-28T04:36:35.484Z,0.40
2023-09-28T04:39:05.588Z,0.40
2023-09-28T04:41:34.853Z,0.40
2023-09-28T04:44:05.381Z,0.40
2023-09-28T04:46:34.672Z,0.40
2023-09-28T04:49:04.033Z,0.40
2023-09-28T04:51:33.219Z,0.30
2023-09-28T04:54:04.432Z,0.40
2023-09-28T04:56:33.729Z,0.40
2023-09-28T04:59:06.746Z,0.40
2023-09-28T05:01:36.082Z,0.40
2023-09-28T05:04:05.902Z,0.40
2023-09-28T05:06:36.608Z,0.50
2023-09-28T05:09:06.447Z,0.40
2023-09-28T05:11:36.101Z,0.40
2023-09-28T05:14:05.500Z,0.40
2023-09-28T05:16:34.896Z,0.40
2023-09-28T05:19:04.395Z,0.40
2023-09-28T05:21:33.613Z,0.40
2023-09-28T05:24:02.867Z,0.40
2023-09-28T05:26:32.093Z,0.30
2023-09-28T05:29:01.446Z,0.40
2023-09-28T05:31:31.330Z,0.35
2023-09-28T05:34:00.902Z,0.32
2023-09-28T05:36:30.199Z,0.30
2023-09-28T05:38:59.518Z,0.40
2023-09-28T05:41:28.786Z,0.40
2023-09-28T05:43:58.009Z,0.35
2023-09-28T05:46:27.380Z,0.30
2023-09-28T05:48:56.615Z,0.30
2023-09-28T05:51:25.865Z,0.40
2023-09-28T05:53:55.787Z,0.30
2023-09-28T05:56:25.131Z,0.30
2023-09-28T05:58:55.243Z,0.30
2023-09-28T06:01:25.716Z,0.30
2023-09-28T06:03:55.348Z,0.30
2023-09-28T06:06:25.380Z,0.30
2023-09-28T06:08:55.053Z,0.30
2023-09-28T06:11:25.567Z,0.30
2023-09-28T06:14:07.114Z,0.30
2023-09-28T06:16:38.216Z,0.30
2023-09-28T06:19:08.262Z,0.20
2023-09-28T06:21:39.629Z,0.30
2023-09-28T06:24:08.995Z,0.30
2023-09-28T06:26:43.413Z,0.30
2023-09-28T06:29:13.320Z,0.25
2023-09-28T06:31:45.510Z,0.28
2023-09-28T06:34:14.887Z,0.30
2023-09-28T06:36:44.111Z,0.20
2023-09-28T06:39:14.092Z,0.30
2023-09-28T06:41:43.318Z,0.30
2023-09-28T06:44:12.579Z,0.30
2023-09-28T06:46:42.060Z,0.30
2023-09-28T06:49:13.255Z,0.20
2023-09-28T06:51:43.463Z,0.20
2023-09-28T06:54:12.665Z,0.20
2023-09-28T06:56:42.814Z,0.20
2023-09-28T06:59:14.520Z,0.20
2023-09-28T07:01:43.953Z,0.20
2023-09-28T07:04:13.377Z,0.20
2023-09-28T07:06:42.650Z,0.20
2023-09-28T07:09:13.405Z,0.30
2023-09-28T07:11:42.632Z,0.20
2023-09-28T07:14:12.136Z,0.30
2023-09-28T07:16:41.483Z,0.20
2023-09-28T07:19:10.944Z,0.20
2023-09-28T07:21:40.268Z,0.20
2023-09-28T07:24:18.600Z,0.20
2023-09-28T07:26:48.452Z,0.20
2023-09-28T07:29:17.774Z,0.20
2023-09-28T07:31:47.024Z,0.20
2023-09-28T07:34:16.372Z,0.20
2023-09-28T07:36:46.495Z,0.20
2023-09-28T07:39:16.081Z,0.20
2023-09-28T07:41:46.436Z,0.15
2023-09-28T07:44:15.688Z,0.20
2023-09-28T07:46:45.019Z,0.20
2023-09-28T07:49:18.385Z,0.10
2023-09-28T07:51:47.702Z,0.15
2023-09-28T07:54:17.026Z,0.10
2023-09-28T07:56:46.278Z,0.10
2023-09-28T07:59:15.633Z,0.10
2023-09-28T08:01:45.006Z,0.10
2023-09-28T08:04:14.345Z,0.20
2023-09-28T08:06:43.994Z,0.10
2023-09-28T08:09:15.448Z,0.10
2023-09-28T08:11:44.733Z,0.10
2023-09-28T08:14:16.764Z,0.20
2023-09-28T08:16:46.754Z,0.10
2023-09-28T08:19:16.426Z,0.10
2023-09-28T08:21:45.630Z,0.10
2023-09-28T08:24:14.917Z,0.10
2023-09-28T08:26:44.434Z,0.10
2023-09-28T08:29:14.105Z,0.10
2023-09-28T08:31:43.395Z,0.10
2023-09-28T08:34:22.088Z,0.10
2023-09-28T08:36:54.561Z,0.10
2023-09-28T08:39:23.763Z,0.20
2023-09-28T08:41:56.837Z,0.10
2023-09-28T08:44:29.790Z,0.10
2023-09-28T08:47:01.507Z,0.10
2023-09-28T08:49:31.094Z,0.10
2023-09-28T08:52:03.322Z,0.10
2023-09-28T08:54:33.692Z,0.10
2023-09-28T08:57:03.170Z,0.10
2023-09-28T08:59:33.010Z,0.10
2023-09-28T09:02:04.805Z,0.10
2023-09-28T09:04:35.931Z,0.10
2023-09-28T09:07:06.266Z,0.10
2023-09-28T09:09:41.661Z,0.10
2023-09-28T09:12:11.734Z,0.10
2023-09-28T09:14:43.915Z,0.10
2023-09-28T09:17:13.612Z,0.10
2023-09-28T09:19:43.893Z,0.10
2023-09-28T09:22:26.982Z,0.10
2023-09-28T09:24:58.071Z,0.10
2023-09-28T09:27:29.021Z,0.10
2023-09-28T09:30:09.522Z,0.10
2023-09-28T09:32:43.123Z,0.10
2023-09-28T09:35:12.869Z,0.10
2023-09-28T09:37:52.154Z,0.03
2023-09-28T09:40:22.309Z,0.10
2023-09-28T09:42:51.600Z,0.10
2023-09-28T09:45:21.069Z,0.00
2023-09-28T09:47:50.820Z,0.10
2023-09-28T09:50:22.415Z,0.10
2023-09-28T09:52:54.188Z,0.10
2023-09-28T09:55:23.534Z,0.10
2023-09-28T09:58:02.791Z,0.10
2023-09-28T10:00:34.237Z,0.00
2023-09-28T10:03:06.729Z,0.10
2023-09-28T10:05:37.829Z,0.10
2023-09-28T10:08:09.522Z,0.00
2023-09-28T10:10:39.571Z,0.00
2023-09-28T10:13:08.977Z,0.00
2023-09-28T10:15:39.301Z,0.00
2023-09-28T10:18:08.897Z,0.10
2023-09-28T10:20:38.538Z,0.10
2023-09-28T10:23:22.589Z,0.10
2023-09-28T10:26:17.284Z,0.10
2023-09-28T10:29:09.208Z,0.00
2023-09-28T10:34:23.865Z,0.10
2023-09-28T10:37:12.746Z,0.00
2023-09-28T10:39:50.318Z,0.00
2023-09-28T10:42:21.967Z,0.03
2023-09-28T10:44:57.802Z,0.00
2023-09-28T10:47:28.591Z,0.00
2023-09-28T10:50:09.700Z,0.00
2023-09-28T10:52:39.977Z,0.00
2023-09-28T10:55:09.724Z,0.00
2023-09-28T10:57:40.141Z,0.00
2023-09-28T11:00:13.572Z,0.00
2023-09-28T11:02:43.177Z,0.00
2023-09-28T11:05:13.421Z,0.00
2023-09-28T11:07:42.884Z,0.00
2023-09-28T11:10:13.033Z,0.00
2023-09-28T11:12:42.940Z,0.10
2023-09-28T11:15:15.828Z,0.00
2023-09-28T11:17:48.498Z,0.00
2023-09-28T11:20:20.947Z,0.00
2023-09-28T11:22:57.848Z,0.00
2023-09-28T11:25:44.901Z,0.00
2023-09-28T11:28:15.936Z,0.00
2023-09-28T11:30:45.236Z,0.00
2023-09-28T11:33:14.625Z,0.00
2023-09-28T11:35:44.950Z,0.00
2023-09-28T11:38:14.218Z,0.00
2023-09-28T11:40:45.303Z,0.00
2023-09-28T11:43:14.639Z,0.00
2023-09-28T11:45:44.226Z,0.00
2023-09-28T11:48:20.898Z,0.00
2023-09-28T11:50:50.392Z,0.00
2023-09-28T11:53:20.074Z,0.00
2023-09-28T11:55:50.431Z,0.10
2023-09-28T11:58:23.475Z,0.00
2023-09-28T12:00:52.761Z,0.00
2023-09-28T12:03:23.142Z,0.10
2023-09-28T12:05:53.390Z,0.00
2023-09-28T12:08:22.941Z,0.00
2023-09-28T12:10:52.314Z,0.00
2023-09-28T12:13:23.356Z,0.00
2023-09-28T12:15:52.858Z,0.00
2023-09-28T12:18:22.770Z,0.00
2023-09-28T12:20:52.298Z,0.00
2023-09-28T12:23:21.559Z,0.00
2023-09-28T12:25:50.808Z,0.00
2023-09-28T12:28:20.325Z,0.00
2023-09-28T12:30:49.966Z,0.00
2023-09-28T12:33:19.969Z,0.00
2023-09-28T12:35:49.997Z,0.00
2023-09-28T12:38:19.329Z,0.10
2023-09-28T12:40:49.297Z,0.00
2023-09-28T12:43:18.559Z,0.00
2023-09-28T12:45:48.392Z,0.00
2023-09-28T12:48:19.968Z,0.00
2023-09-28T12:50:49.352Z,0.00
2023-09-28T12:53:19.064Z,0.00
2023-09-28T12:55:48.935Z,0.00
2023-09-28T12:58:19.648Z,0.00
2023-09-28T13:00:51.007Z,0.00
2023-09-28T13:03:22.220Z,0.00
2023-09-28T13:05:52.066Z,0.00
2023-09-28T13:08:21.697Z,0.00
2023-09-28T13:10:51.618Z,0.00
2023-09-28T13:13:21.139Z,0.00
2023-09-28T13:15:50.415Z,0.00
2023-09-28T13:18:19.658Z,0.28
2023-09-28T13:20:50.013Z,0.30
2023-09-28T13:23:19.318Z,0.20
2023-09-28T13:25:48.529Z,0.20
2023-09-28T13:28:18.524Z,0.20
2023-09-28T13:30:48.756Z,0.10
2023-09-28T13:33:18.191Z,0.10
2023-09-28T13:35:47.532Z,0.00
2023-09-28T13:38:17.817Z,0.00
2023-09-28T13:40:52.035Z,0.00
2023-09-28T13:43:27.679Z,0.00
2023-09-28T13:45:57.075Z,0.00
2023-09-28T13:48:29.071Z,0.00
2023-09-28T13:50:59.203Z,0.00
2023-09-28T13:53:30.580Z,0.00
2023-09-28T13:55:59.933Z,0.00
2023-09-28T13:58:30.509Z,0.00
2023-09-28T14:01:00.410Z,0.00
2023-09-28T14:03:30.937Z,0.00
2023-09-28T14:06:00.611Z,0.00
2023-09-28T14:08:32.449Z,0.00
2023-09-28T14:11:01.853Z,0.00
2023-09-28T14:13:31.121Z,0.00
2023-09-28T14:16:00.483Z,0.00
2023-09-28T14:18:29.935Z,0.00
2023-09-28T14:20:59.208Z,0.00
2023-09-28T14:23:28.466Z,0.00
2023-09-28T14:25:57.768Z,0.00
2023-09-28T14:28:27.121Z,0.00
2023-09-28T14:30:56.701Z,0.00
2023-09-28T14:33:27.214Z,0.00
2023-09-28T14:35:57.164Z,0.00
2023-09-28T14:38:26.501Z,0.00
2023-09-28T14:40:56.215Z,0.00
2023-09-28T14:43:26.301Z,0.00
2023-09-28T14:45:55.550Z,0.00
2023-09-28T14:48:25.131Z,0.00
2023-09-28T14:50:54.423Z,0.00
2023-09-28T14:53:23.897Z,0.00
2023-09-28T14:55:53.435Z,0.00
2023-09-28T14:58:22.797Z,0.00
2023-09-28T15:00:53.775Z,0.00
2023-09-28T15:03:23.720Z,0.00
2023-09-28T15:05:53.571Z,0.00
2023-09-28T15:08:23.518Z,0.00
2023-09-28T15:10:52.858Z,0.00
2023-09-28T15:13:22.118Z,0.00
2023-09-28T15:15:51.556Z,0.00
2023-09-28T15:18:21.929Z,0.00
2023-09-28T15:20:51.206Z,0.00
2023-09-28T15:23:20.436Z,0.00
2023-09-28T15:25:49.698Z,0.00
2023-09-28T15:28:18.955Z,0.00
2023-09-28T15:30:58.107Z,0.00
2023-09-28T15:33:27.619Z,0.00
2023-09-28T15:35:59.006Z,0.00
2023-09-28T15:38:28.718Z,0.00
2023-09-28T15:40:58.579Z,0.00
2023-09-28T15:43:29.699Z,0.00
2023-09-28T15:45:58.957Z,0.00
2023-09-28T15:48:28.321Z,0.00
2023-09-28T15:50:58.102Z,0.00
2023-09-28T15:53:27.328Z,0.00
2023-09-28T15:55:56.707Z,0.00
2023-09-28T15:58:26.279Z,0.00
2023-09-28T16:00:55.477Z,0.00
2023-09-28T16:03:24.782Z,0.00
2023-09-28T16:05:54.049Z,0.10
2023-09-28T16:08:23.407Z,0.00
2023-09-28T16:10:52.622Z,0.05
2023-09-28T16:13:21.890Z,0.00
2023-09-28T16:15:51.506Z,0.00
2023-09-28T16:18:20.784Z,0.00
2023-09-28T16:20:50.181Z,0.00
2023-09-28T16:23:19.496Z,0.00
2023-09-28T16:25:48.835Z,0.00
2023-09-28T16:28:18.274Z,0.00
2023-09-28T16:30:47.771Z,0.00
2023-09-28T16:33:17.178Z,0.00
2023-09-28T16:35:46.418Z,0.00
2023-09-28T16:38:15.867Z,0.10
2023-09-28T16:40:45.263Z,0.10
2023-09-28T16:43:14.599Z,0.00
2023-09-28T16:45:43.871Z,0.10
2023-09-28T16:48:13.134Z,0.10
2023-09-28T16:50:42.398Z,0.10
2023-09-28T16:53:11.716Z,0.00
2023-09-28T16:55:40.950Z,0.10
2023-09-28T16:58:10.216Z,0.10
2023-09-28T17:00:39.729Z,0.10
2023-09-28T17:03:09.090Z,0.10
2023-09-28T17:05:38.572Z,0.10
2023-09-28T17:08:07.973Z,0.10
2023-09-28T17:10:37.637Z,0.10
2023-09-28T17:13:06.890Z,0.10
2023-09-28T17:15:36.457Z,0.10
2023-09-28T17:18:19.800Z,0.10
2023-09-28T17:20:50.903Z,0.10
2023-09-28T17:23:20.721Z,0.10
2023-09-28T17:25:52.410Z,0.10
2023-09-28T17:28:21.925Z,0.10
2023-09-28T17:30:51.724Z,0.10
2023-09-28T17:33:21.363Z,0.10
2023-09-28T17:35:50.899Z,0.10
2023-09-28T17:38:20.763Z,0.10
2023-09-28T17:40:50.419Z,0.10
2023-09-28T17:43:20.035Z,0.10
2023-09-28T17:45:50.422Z,0.17
2023-09-28T17:48:20.346Z,0.10
2023-09-28T17:50:52.000Z,0.10
2023-09-28T17:53:21.677Z,0.10
2023-09-28T17:55:51.308Z,0.10
2023-09-28T17:58:23.317Z,0.20
2023-09-28T18:00:52.972Z,0.10
2023-09-28T18:03:23.157Z,0.10
2023-09-28T18:05:52.934Z,0.20
2023-09-28T18:08:22.948Z,0.20
2023-09-28T18:10:52.737Z,0.20
2023-09-28T18:13:22.693Z,0.20
2023-09-28T18:15:52.417Z,0.20
2023-09-28T18:18:22.487Z,0.20
2023-09-28T18:20:52.447Z,0.20
2023-09-28T18:23:22.804Z,0.20
2023-09-28T18:25:55.401Z,0.20
2023-09-28T18:28:26.281Z,0.20
2023-09-28T18:30:56.555Z,0.20
2023-09-28T18:33:26.472Z,0.20
2023-09-28T18:35:57.911Z,0.20
2023-09-28T18:38:28.378Z,0.20
2023-09-28T18:40:58.149Z,0.20
2023-09-28T18:43:28.891Z,0.20
2023-09-28T18:46:01.095Z,0.20
2023-09-28T18:48:31.434Z,0.20
2023-09-28T18:51:01.364Z,0.20
2023-09-28T18:53:30.923Z,0.20
2023-09-28T18:56:06.583Z,0.20
2023-09-28T18:58:38.664Z,0.20
2023-09-28T19:01:16.422Z,0.20
2023-09-28T19:06:21.141Z,0.30
2023-09-28T19:08:51.434Z,0.20
2023-09-28T19:11:21.285Z,0.20
2023-09-28T19:13:54.421Z,0.20
2023-09-28T19:16:24.292Z,0.20
2023-09-28T19:18:54.578Z,0.20
2023-09-28T19:21:25.090Z,0.20
2023-09-28T19:23:55.264Z,0.20
2023-09-28T19:26:25.118Z,0.20
2023-09-28T19:28:54.855Z,0.20
2023-09-28T19:31:25.995Z,0.20
2023-09-28T19:33:56.744Z,0.20
2023-09-28T19:36:26.962Z,0.25
2023-09-28T19:38:56.655Z,0.20
2023-09-28T19:41:28.678Z,0.20
2023-09-28T19:43:58.777Z,0.20
2023-09-28T19:46:30.004Z,0.20
2023-09-28T19:49:00.294Z,0.20
2023-09-28T19:51:30.855Z,0.20
2023-09-28T19:54:01.195Z,0.20
2023-09-28T19:56:33.081Z,0.20
2023-09-28T19:59:03.839Z,0.20
2023-09-28T20:01:33.301Z,0.20
2023-09-28T20:04:03.377Z,0.20
2023-09-28T20:06:34.223Z,0.20
2023-09-28T20:09:04.654Z,0.20
2023-09-28T20:11:35.689Z,0.20
2023-09-28T20:14:05.464Z,0.20
2023-09-28T20:16:34.885Z,0.20
2023-09-28T20:19:04.176Z,0.20
2023-09-28T20:21:33.454Z,0.20
2023-09-28T20:24:06.175Z,0.20
2023-09-28T20:26:35.455Z,0.25
2023-09-28T20:29:04.898Z,0.20
2023-09-28T20:31:34.262Z,0.20
2023-09-28T20:34:03.852Z,0.20
2023-09-28T20:36:33.051Z,0.20
2023-09-28T20:39:02.297Z,0.20
2023-09-28T20:41:32.360Z,0.20
2023-09-28T20:44:01.743Z,0.22
2023-09-28T20:46:31.067Z,0.20
2023-09-28T20:49:01.277Z,0.20
2023-09-28T20:51:32.458Z,0.20
2023-09-28T20:54:01.683Z,0.20
2023-09-28T20:56:30.920Z,0.20
2023-09-28T20:59:00.168Z,0.30
2023-09-28T21:01:29.358Z,0.20
2023-09-28T21:03:59.381Z,0.20
2023-09-28T21:06:28.600Z,0.20
2023-09-28T21:08:58.627Z,0.30
2023-09-28T21:11:28.070Z,0.20
2023-09-28T21:13:57.508Z,0.20
2023-09-28T21:16:26.769Z,0.30
2023-09-28T21:18:56.288Z,0.20
2023-09-28T21:21:25.756Z,0.30
2023-09-28T21:23:55.285Z,0.30
2023-09-28T21:26:24.573Z,0.30
2023-09-28T21:28:54.052Z,0.30
2023-09-28T21:31:23.875Z,0.20
2023-09-28T21:33:53.164Z,0.30
2023-09-28T21:36:22.670Z,0.20
2023-09-28T21:38:52.030Z,0.20
2023-09-28T21:41:21.327Z,0.30
2023-09-28T21:43:50.976Z,0.20
2023-09-28T21:46:22.837Z,0.22
2023-09-28T21:48:52.485Z,0.30
2023-09-28T21:51:22.459Z,0.30
2023-09-28T21:53:51.810Z,0.30
2023-09-28T21:56:21.120Z,0.30
2023-09-28T21:58:50.521Z,0.30
2023-09-28T22:01:20.015Z,0.30
2023-09-28T22:03:50.834Z,0.30
2023-09-28T22:06:20.340Z,0.30
2023-09-28T22:08:49.704Z,0.30
2023-09-28T22:11:19.092Z,0.30
2023-09-28T22:13:48.529Z,0.30
2023-09-28T22:16:17.863Z,0.20
2023-09-28T22:18:47.337Z,0.30
2023-09-28T22:21:18.626Z,0.30
2023-09-28T22:23:49.382Z,0.30
2023-09-28T22:26:18.736Z,0.20
2023-09-28T22:28:48.346Z,0.30
2023-09-28T22:31:17.644Z,0.30
2023-09-28T22:33:46.910Z,0.30
2023-09-28T22:36:16.478Z,0.30
2023-09-28T22:38:45.697Z,0.20
2023-09-28T22:41:16.444Z,0.30
2023-09-28T22:43:45.689Z,0.30
2023-09-28T22:46:14.911Z,0.30
2023-09-28T22:48:44.695Z,0.30
2023-09-28T22:51:13.860Z,0.30
2023-09-28T22:53:44.112Z,0.30
2023-09-28T22:56:13.361Z,0.30
2023-09-28T22:58:42.552Z,0.30
2023-09-28T23:01:11.875Z,0.30
2023-09-28T23:03:41.281Z,0.30
2023-09-28T23:06:10.707Z,0.25
2023-09-28T23:08:39.942Z,0.22
2023-09-28T23:11:16.068Z,0.30
2023-09-28T23:13:45.348Z,0.25
2023-09-28T23:16:15.782Z,0.40
2023-09-28T23:18:45.113Z,0.30
2023-09-28T23:21:14.301Z,0.28
2023-09-28T23:23:43.598Z,0.30
2023-09-28T23:26:12.873Z,0.30
2023-09-28T23:28:44.938Z,0.30
2023-09-28T23:31:14.909Z,0.30
2023-09-28T23:33:44.602Z,0.30
2023-09-28T23:36:16.714Z,0.30
2023-09-28T23:38:47.685Z,0.30
2023-09-28T23:41:20.123Z,0.35
2023-09-28T23:43:49.993Z,0.30
2023-09-28T23:46:19.177Z,0.30
2023-09-28T23:48:49.311Z,0.30
2023-09-28T23:51:18.503Z,0.30
2023-09-28T23:53:47.807Z,0.30
2023-09-28T23:56:17.072Z,0.30
2023-09-28T23:58:46.241Z,0.30
